createdAt,value
2023-02-06T00:02:24.708Z,4.30
2023-02-06T00:04:56.548Z,4.29
2023-02-06T00:07:30.382Z,4.22
2023-02-06T00:10:02.793Z,4.16
2023-02-06T00:12:35.899Z,4.26
2023-02-06T00:15:09.285Z,4.14
2023-02-06T00:17:41.129Z,4.17
2023-02-06T00:20:14.313Z,4.22
2023-02-06T00:22:46.583Z,4.22
2023-02-06T00:25:18.963Z,4.25
2023-02-06T00:27:51.890Z,4.23
2023-02-06T00:30:24.251Z,4.21
2023-02-06T00:32:56.127Z,4.27
2023-02-06T00:35:28.948Z,4.17
2023-02-06T00:38:02.370Z,4.25
2023-02-06T00:40:35.117Z,4.08
2023-02-06T00:43:07.495Z,4.25
2023-02-06T00:45:39.350Z,4.17
2023-02-06T00:48:16.752Z,4.11
2023-02-06T00:50:50.885Z,4.27
2023-02-06T00:53:23.089Z,4.36
2023-02-06T00:55:55.983Z,4.47
2023-02-06T00:58:28.295Z,4.56
2023-02-06T01:01:00.260Z,4.51
2023-02-06T01:03:32.988Z,4.40
2023-02-06T01:06:05.370Z,4.38
2023-02-06T01:08:37.204Z,4.31
2023-02-06T01:11:20.274Z,4.39
2023-02-06T01:13:52.202Z,4.43
2023-02-06T01:16:25.729Z,4.32
2023-02-06T01:18:58.060Z,4.16
2023-02-06T01:21:30.761Z,4.21
2023-02-06T01:24:03.702Z,4.14
2023-02-06T01:26:36.721Z,4.22
2023-02-06T01:29:08.564Z,4.18
2023-02-06T01:31:41.268Z,4.10
2023-02-06T01:37:06.969Z,4.12
2023-02-06T01:39:38.820Z,4.22
2023-02-06T01:42:13.510Z,4.21
2023-02-06T01:44:45.610Z,4.27
2023-02-06T01:47:18.806Z,4.33
2023-02-06T01:49:51.462Z,4.35
2023-02-06T01:52:26.869Z,4.34
2023-02-06T01:55:03.130Z,4.34
2023-02-06T01:57:37.004Z,4.27
2023-02-06T02:00:11.315Z,4.20
2023-02-06T02:02:48.759Z,4.18
2023-02-06T02:05:20.970Z,4.14
2023-02-06T02:08:01.745Z,4.06
2023-02-06T02:10:33.808Z,3.93
2023-02-06T02:13:06.124Z,3.93
2023-02-06T02:16:00.730Z,3.94
2023-02-06T02:19:00.557Z,3.93
2023-02-06T02:21:58.287Z,3.82
2023-02-06T02:25:08.332Z,3.61
2023-02-06T02:27:58.376Z,3.59
2023-02-06T02:31:08.326Z,3.59
2023-02-06T02:33:56.561Z,3.57
2023-02-06T02:37:09.823Z,3.54
2023-02-06T02:39:48.294Z,3.49
2023-02-06T02:43:12.648Z,3.34
2023-02-06T02:46:04.802Z,3.22
2023-02-06T02:48:43.876Z,3.35
2023-02-06T02:51:17.071Z,3.33
2023-02-06T02:53:49.734Z,3.21
2023-02-06T02:56:25.218Z,3.09
2023-02-06T02:59:07.861Z,2.98
2023-02-06T03:01:58.453Z,2.90
2023-02-06T03:04:43.096Z,2.80
2023-02-06T03:07:53.368Z,2.80
2023-02-06T03:10:37.900Z,2.64
2023-02-06T03:13:38.862Z,2.58
2023-02-06T03:19:33.759Z,2.49
2023-02-06T03:22:06.224Z,2.54
2023-02-06T03:24:40.556Z,2.67
2023-02-06T03:27:17.131Z,2.85
2023-02-06T03:29:55.431Z,2.77
2023-02-06T03:32:32.668Z,2.58
2023-02-06T03:35:21.794Z,2.54
2023-02-06T03:37:54.001Z,2.49
2023-02-06T03:40:27.223Z,2.39
2023-02-06T03:43:01.999Z,2.29
2023-02-06T03:45:40.745Z,2.18
2023-02-06T03:48:21.835Z,2.17
2023-02-06T03:51:03.402Z,2.08
2023-02-06T03:53:37.941Z,2.04
2023-02-06T03:56:43.994Z,1.95
2023-02-06T03:59:15.990Z,2.02
2023-02-06T04:01:58.232Z,2.04
2023-02-06T04:04:36.940Z,2.11
2023-02-06T04:07:30.755Z,2.26
2023-02-06T04:10:03.270Z,2.37
2023-02-06T04:12:36.020Z,2.49
2023-02-06T04:15:08.695Z,2.55
2023-02-06T04:17:57.641Z,2.51
2023-02-06T04:20:32.668Z,2.55
2023-02-06T04:23:05.217Z,2.52
2023-02-06T04:25:38.081Z,2.54
2023-02-06T04:28:10.586Z,2.53
2023-02-06T04:30:42.985Z,2.54
2023-02-06T04:33:15.403Z,2.58
2023-02-06T04:35:49.209Z,2.56
2023-02-06T04:38:21.529Z,2.59
2023-02-06T04:40:53.838Z,2.54
2023-02-06T04:43:26.408Z,5.03
2023-02-06T04:45:59.325Z,3.03
2023-02-06T04:48:31.246Z,2.68
2023-02-06T04:51:04.430Z,2.52
2023-02-06T04:53:37.248Z,2.45
2023-02-06T04:56:12.162Z,2.50
2023-02-06T04:58:44.976Z,2.43
2023-02-06T05:01:17.911Z,2.45
2023-02-06T05:03:50.851Z,2.28
2023-02-06T05:06:23.765Z,2.13
2023-02-06T05:08:56.741Z,2.05
2023-02-06T05:11:28.629Z,2.02
2023-02-06T05:14:02.259Z,2.08
2023-02-06T05:16:34.832Z,2.10
2023-02-06T05:19:07.885Z,2.07
2023-02-06T05:21:40.731Z,2.12
2023-02-06T05:24:13.216Z,2.08
2023-02-06T05:26:46.460Z,2.10
2023-02-06T05:29:19.188Z,1.98
2023-02-06T05:31:51.871Z,3.12
2023-02-06T05:34:24.869Z,2.48
2023-02-06T05:36:57.439Z,2.28
2023-02-06T05:39:30.043Z,2.27
2023-02-06T05:42:02.029Z,2.40
2023-02-06T05:44:34.858Z,2.47
2023-02-06T05:47:09.857Z,2.48
2023-02-06T05:49:44.005Z,2.41
2023-02-06T05:52:16.859Z,2.25
2023-02-06T05:54:48.722Z,2.20
2023-02-06T05:57:21.878Z,2.11
2023-02-06T05:59:53.764Z,2.05
2023-02-06T06:02:26.556Z,2.02
2023-02-06T06:04:59.000Z,2.04
2023-02-06T06:07:31.184Z,2.13
2023-02-06T06:10:04.839Z,2.05
2023-02-06T06:12:37.134Z,2.13
2023-02-06T06:15:10.340Z,2.12
2023-02-06T06:17:42.223Z,2.12
2023-02-06T06:20:14.996Z,2.12
2023-02-06T06:22:47.479Z,2.09
2023-02-06T06:25:20.240Z,2.07
2023-02-06T06:27:52.317Z,2.07
2023-02-06T06:30:24.681Z,2.13
2023-02-06T06:32:56.614Z,2.07
2023-02-06T06:35:29.837Z,2.04
2023-02-06T06:38:01.711Z,2.10
2023-02-06T06:40:34.445Z,2.09
2023-02-06T06:43:06.366Z,2.18
2023-02-06T06:45:41.725Z,2.28
2023-02-06T06:48:14.080Z,2.34
2023-02-06T06:50:46.421Z,2.43
2023-02-06T06:53:19.120Z,2.56
2023-02-06T06:55:51.006Z,2.61
2023-02-06T06:58:24.175Z,2.46
2023-02-06T07:00:57.256Z,2.52
2023-02-06T07:03:31.715Z,2.65
2023-02-06T07:06:05.900Z,2.71
2023-02-06T07:08:44.095Z,2.80
2023-02-06T07:11:19.069Z,2.72
2023-02-06T07:13:51.746Z,2.64
2023-02-06T07:16:24.972Z,2.65
2023-02-06T07:18:57.395Z,2.73
2023-02-06T07:21:29.369Z,2.78
2023-02-06T07:24:06.061Z,2.84
2023-02-06T07:26:37.966Z,2.77
2023-02-06T07:29:11.106Z,2.83
2023-02-06T07:31:43.657Z,2.80
2023-02-06T07:34:17.264Z,2.79
2023-02-06T07:36:49.203Z,2.77
2023-02-06T07:39:22.075Z,2.79
2023-02-06T07:41:54.066Z,3.02
2023-02-06T07:44:28.012Z,2.92
2023-02-06T07:46:59.916Z,2.89
2023-02-06T07:49:32.588Z,2.92
2023-02-06T07:52:04.824Z,2.83
2023-02-06T07:54:38.983Z,2.83
2023-02-06T07:57:11.337Z,2.81
2023-02-06T07:59:44.520Z,2.74
2023-02-06T08:02:16.426Z,2.68
2023-02-06T08:04:49.137Z,2.69
2023-02-06T08:07:21.434Z,2.66
2023-02-06T08:09:54.776Z,2.72
2023-02-06T08:12:26.732Z,2.68
2023-02-06T08:14:59.935Z,2.50
2023-02-06T08:17:32.244Z,2.54
2023-02-06T08:20:04.323Z,2.58
2023-02-06T08:22:38.267Z,2.46
2023-02-06T08:25:10.205Z,2.64
2023-02-06T08:27:43.024Z,2.87
2023-02-06T08:30:15.867Z,2.65
2023-02-06T08:32:47.824Z,2.76
2023-02-06T08:35:23.408Z,2.60
2023-02-06T08:37:55.732Z,2.62
2023-02-06T08:40:28.283Z,2.53
2023-02-06T08:43:00.193Z,2.46
2023-02-06T08:45:33.278Z,2.42
2023-02-06T08:48:05.400Z,2.71
2023-02-06T08:50:38.228Z,3.42
2023-02-06T08:53:12.010Z,4.03
2023-02-06T08:55:44.544Z,4.09
2023-02-06T08:58:17.671Z,3.73
2023-02-06T09:00:49.555Z,3.76
2023-02-06T09:03:45.286Z,4.40
2023-02-06T09:06:17.729Z,4.97
2023-02-06T09:08:49.901Z,8.24
2023-02-06T09:11:27.078Z,6.90
2023-02-06T09:14:01.831Z,6.49
2023-02-06T09:16:35.526Z,6.08
2023-02-06T09:19:08.197Z,5.96
2023-02-06T09:24:32.577Z,4.63
2023-02-06T09:27:04.535Z,4.44
2023-02-06T09:29:36.865Z,4.39
2023-02-06T09:32:09.611Z,5.96
2023-02-06T09:34:42.972Z,7.32
2023-02-06T09:37:15.964Z,8.01
2023-02-06T09:39:48.936Z,8.81
2023-02-06T09:42:36.318Z,8.87
2023-02-06T09:45:30.067Z,8.97
2023-02-06T09:48:22.729Z,8.68
2023-02-06T09:51:50.244Z,10.00
2023-02-06T09:55:04.955Z,9.28
2023-02-06T09:57:48.503Z,8.75
2023-02-06T10:00:45.227Z,7.74
2023-02-06T10:03:57.697Z,5.97
2023-02-06T10:06:48.786Z,5.79
2023-02-06T10:09:32.064Z,6.48
2023-02-06T10:12:13.498Z,5.90
2023-02-06T10:14:55.059Z,7.05
2023-02-06T10:17:34.381Z,9.21
2023-02-06T10:20:20.821Z,9.23
2023-02-06T10:23:09.799Z,10.68
2023-02-06T10:26:18.775Z,11.48
2023-02-06T10:28:56.393Z,11.85
2023-02-06T10:31:47.569Z,10.01
2023-02-06T10:35:05.399Z,10.27
2023-02-06T10:37:56.084Z,10.69
2023-02-06T10:40:37.507Z,10.22
2023-02-06T10:43:50.180Z,12.59
2023-02-06T10:46:47.875Z,12.16
2023-02-06T10:49:37.920Z,12.76
2023-02-06T10:52:24.676Z,12.04
2023-02-06T10:55:04.336Z,12.45
2023-02-06T10:57:36.330Z,10.94
2023-02-06T11:00:22.784Z,10.81
2023-02-06T11:03:07.727Z,12.11
2023-02-06T11:05:41.711Z,14.15
2023-02-06T11:08:22.055Z,13.28
2023-02-06T11:10:56.195Z,12.11
2023-02-06T11:13:35.463Z,10.64
2023-02-06T11:16:09.502Z,9.58
2023-02-06T11:18:46.837Z,8.58
2023-02-06T11:21:41.517Z,10.64
2023-02-06T11:24:17.648Z,11.42
2023-02-06T11:27:03.491Z,11.26
2023-02-06T11:29:44.322Z,10.84
2023-02-06T11:32:52.771Z,10.71
2023-02-06T11:35:56.327Z,11.58
2023-02-06T11:38:30.468Z,12.99
2023-02-06T11:41:18.285Z,10.51
2023-02-06T11:43:55.824Z,9.56
2023-02-06T11:46:35.679Z,8.67
2023-02-06T11:49:19.519Z,10.62
2023-02-06T11:52:01.526Z,11.59
2023-02-06T11:54:35.479Z,10.70
2023-02-06T11:57:21.683Z,9.49
2023-02-06T12:00:05.947Z,8.47
2023-02-06T12:02:52.466Z,8.65
2023-02-06T12:05:29.300Z,8.70
2023-02-06T12:08:14.606Z,9.44
2023-02-06T12:10:58.591Z,9.30
2023-02-06T12:13:42.260Z,8.66
2023-02-06T12:16:15.740Z,8.23
2023-02-06T12:18:52.824Z,8.12
2023-02-06T12:21:48.157Z,8.33
2023-02-06T12:24:45.939Z,7.87
2023-02-06T12:27:55.545Z,7.66
2023-02-06T12:30:40.771Z,7.53
2023-02-06T12:33:34.263Z,7.53
2023-02-06T12:36:35.847Z,8.11
2023-02-06T12:39:19.963Z,7.92
2023-02-06T12:42:24.628Z,7.45
2023-02-06T12:45:14.943Z,7.24
2023-02-06T12:47:59.947Z,7.19
2023-02-06T12:50:41.003Z,7.04
2023-02-06T12:53:31.052Z,7.05
2023-02-06T12:56:32.252Z,7.20
2023-02-06T12:59:10.238Z,7.38
2023-02-06T13:02:02.707Z,6.98
2023-02-06T13:04:37.623Z,6.85
2023-02-06T13:07:15.242Z,6.66
2023-02-06T13:09:55.696Z,6.65
2023-02-06T13:12:32.320Z,6.56
2023-02-06T13:15:16.913Z,6.57
2023-02-06T13:17:51.579Z,6.58
2023-02-06T13:20:26.132Z,6.42
2023-02-06T13:23:13.889Z,6.43
2023-02-06T13:25:46.939Z,6.36
2023-02-06T13:28:22.520Z,6.52
2023-02-06T13:31:07.263Z,6.38
2023-02-06T13:33:48.789Z,6.43
2023-02-06T13:36:51.807Z,6.45
2023-02-06T13:39:32.074Z,6.47
2023-02-06T13:42:46.872Z,6.42
2023-02-06T13:45:27.190Z,6.42
2023-02-06T13:48:36.899Z,6.27
2023-02-06T13:51:24.310Z,6.58
2023-02-06T13:54:30.927Z,6.07
2023-02-06T13:57:27.319Z,5.95
2023-02-06T14:00:22.944Z,5.91
2023-02-06T14:03:06.599Z,5.67
2023-02-06T14:05:55.889Z,5.78
2023-02-06T14:08:54.427Z,5.63
2023-02-06T14:12:08.779Z,5.77
2023-02-06T14:14:59.848Z,5.65
2023-02-06T14:18:17.619Z,5.59
2023-02-06T14:21:35.400Z,5.57
2023-02-06T14:24:28.132Z,5.66
2023-02-06T14:27:24.614Z,5.39
2023-02-06T14:30:38.054Z,5.42
2023-02-06T14:33:19.100Z,5.42
2023-02-06T14:36:07.050Z,5.33
2023-02-06T14:39:08.571Z,5.37
2023-02-06T14:41:40.556Z,5.42
2023-02-06T14:44:23.495Z,5.52
2023-02-06T14:46:56.352Z,5.57
2023-02-06T14:49:37.523Z,5.58
2023-02-06T14:52:24.293Z,5.49
2023-02-06T14:54:56.919Z,5.47
2023-02-06T14:57:32.360Z,5.29
2023-02-06T15:00:19.205Z,5.29
2023-02-06T15:03:05.705Z,5.20
2023-02-06T15:05:38.822Z,5.17
2023-02-06T15:08:20.549Z,5.17
2023-02-06T15:11:03.612Z,5.16
2023-02-06T15:13:36.223Z,5.14
2023-02-06T15:16:09.538Z,5.17
2023-02-06T15:18:42.265Z,5.02
2023-02-06T15:21:19.118Z,5.02
2023-02-06T15:24:25.913Z,5.12
2023-02-06T15:27:32.726Z,4.89
2023-02-06T15:30:26.210Z,4.78
2023-02-06T15:32:59.047Z,4.53
2023-02-06T15:35:35.759Z,4.50
2023-02-06T15:38:13.627Z,4.41
2023-02-06T15:40:56.980Z,4.45
2023-02-06T15:43:30.026Z,4.40
2023-02-06T15:46:04.766Z,4.31
2023-02-06T15:48:53.213Z,4.37
2023-02-06T15:51:38.303Z,4.30
2023-02-06T15:54:22.664Z,4.50
2023-02-06T15:57:31.887Z,4.39
2023-02-06T16:00:23.726Z,4.29
2023-02-06T16:03:03.216Z,4.39
2023-02-06T16:05:40.539Z,4.34
2023-02-06T16:08:22.315Z,4.29
2023-02-06T16:11:01.049Z,4.19
2023-02-06T16:13:33.712Z,4.06
2023-02-06T16:16:11.591Z,4.12
2023-02-06T16:18:44.249Z,4.02
2023-02-06T16:21:16.031Z,4.00
2023-02-06T16:23:53.140Z,4.12
2023-02-06T16:26:29.592Z,4.03
2023-02-06T16:29:10.910Z,3.96
2023-02-06T16:31:44.732Z,4.01
2023-02-06T16:34:43.325Z,4.05
2023-02-06T16:37:25.989Z,4.07
2023-02-06T16:39:57.856Z,3.98
2023-02-06T16:42:38.329Z,3.93
2023-02-06T16:45:24.319Z,3.86
2023-02-06T16:47:57.323Z,3.82
2023-02-06T16:50:29.250Z,3.78
2023-02-06T16:53:03.439Z,3.85
2023-02-06T16:55:35.412Z,3.67
2023-02-06T16:58:18.368Z,3.78
2023-02-06T17:00:50.814Z,3.69
2023-02-06T17:03:23.650Z,3.57
2023-02-06T17:05:55.530Z,3.61
2023-02-06T17:08:28.523Z,3.52
2023-02-06T17:11:00.445Z,3.38
2023-02-06T17:13:32.708Z,3.30
2023-02-06T17:16:04.881Z,3.32
2023-02-06T17:18:37.570Z,3.33
2023-02-06T17:21:13.790Z,3.41
2023-02-06T17:23:49.850Z,3.39
2023-02-06T17:26:23.249Z,3.45
2023-02-06T17:28:55.802Z,3.26
2023-02-06T17:31:28.575Z,3.25
2023-02-06T17:34:01.620Z,3.26
2023-02-06T17:36:39.499Z,3.26
2023-02-06T17:39:13.649Z,3.19
2023-02-06T17:41:45.608Z,3.20
2023-02-06T17:44:19.047Z,3.23
2023-02-06T17:46:52.220Z,3.25
2023-02-06T17:49:24.777Z,3.21
2023-02-06T17:51:56.762Z,3.22
2023-02-06T17:54:29.338Z,3.21
2023-02-06T17:57:01.311Z,3.20
2023-02-06T17:59:33.876Z,3.19
2023-02-06T18:02:05.839Z,3.13
2023-02-06T18:04:38.446Z,3.14
2023-02-06T18:07:10.834Z,3.14
2023-02-06T18:09:43.401Z,3.15
2023-02-06T18:12:16.221Z,3.08
2023-02-06T18:14:49.898Z,3.13
2023-02-06T18:17:22.862Z,3.15
2023-02-06T18:19:54.769Z,3.15
2023-02-06T18:22:27.427Z,3.15
2023-02-06T18:25:00.946Z,3.08
2023-02-06T18:27:35.293Z,3.05
2023-02-06T18:30:08.369Z,2.93
2023-02-06T18:32:41.339Z,2.84
2023-02-06T18:35:14.819Z,2.74
2023-02-06T18:37:48.523Z,2.50
2023-02-06T18:40:20.419Z,2.55
2023-02-06T18:42:54.426Z,2.58
2023-02-06T18:45:31.611Z,2.50
2023-02-06T18:48:11.906Z,2.47
2023-02-06T18:50:44.259Z,2.34
2023-02-06T18:53:16.573Z,2.42
2023-02-06T18:55:58.241Z,2.60
2023-02-06T18:58:30.990Z,2.49
2023-02-06T19:01:02.921Z,2.50
2023-02-06T19:03:37.103Z,2.43
2023-02-06T19:06:21.552Z,2.32
2023-02-06T19:08:54.470Z,2.37
2023-02-06T19:11:27.320Z,2.22
2023-02-06T19:13:59.728Z,2.14
2023-02-06T19:16:32.645Z,2.16
2023-02-06T19:19:07.698Z,2.09
2023-02-06T19:21:39.621Z,2.04
2023-02-06T19:24:15.809Z,2.11
2023-02-06T19:26:48.215Z,2.08
2023-02-06T19:29:33.578Z,2.14
2023-02-06T19:32:10.100Z,2.13
2023-02-06T19:34:43.998Z,2.38
2023-02-06T19:37:16.759Z,2.31
2023-02-06T19:39:48.785Z,2.40
2023-02-06T19:42:21.528Z,2.39
2023-02-06T19:44:55.187Z,2.47
2023-02-06T19:47:27.042Z,2.41
2023-02-06T19:49:59.751Z,6.45
2023-02-06T19:52:31.703Z,3.43
2023-02-06T19:55:05.109Z,2.94
2023-02-06T19:57:39.660Z,2.61
2023-02-06T20:00:12.978Z,2.52
2023-02-06T20:02:46.584Z,2.47
2023-02-06T20:05:25.855Z,2.52
2023-02-06T20:07:59.157Z,2.51
2023-02-06T20:10:31.692Z,2.64
2023-02-06T20:13:04.514Z,2.55
2023-02-06T20:15:39.927Z,2.53
2023-02-06T20:18:13.093Z,2.55
2023-02-06T20:20:47.045Z,2.55
2023-02-06T20:23:20.572Z,2.45
2023-02-06T20:25:55.196Z,2.55
2023-02-06T20:28:28.804Z,2.56
2023-02-06T20:31:09.422Z,2.52
2023-02-06T20:33:42.909Z,2.43
2023-02-06T20:36:19.984Z,2.36
2023-02-06T20:38:56.051Z,2.30
2023-02-06T20:41:31.833Z,2.31
2023-02-06T20:44:04.720Z,2.18
2023-02-06T20:46:36.984Z,2.12
2023-02-06T20:49:23.458Z,1.97
2023-02-06T20:51:55.411Z,2.02
2023-02-06T20:54:28.301Z,2.08
2023-02-06T20:57:00.676Z,2.15
2023-02-06T20:59:33.446Z,2.15
2023-02-06T21:02:06.048Z,2.16
2023-02-06T21:04:37.934Z,2.03
2023-02-06T21:07:11.100Z,2.03
2023-02-06T21:09:44.563Z,1.94
2023-02-06T21:12:17.792Z,2.06
2023-02-06T21:14:50.086Z,2.04
2023-02-06T21:17:22.413Z,1.98
2023-02-06T21:19:54.283Z,1.85
2023-02-06T21:22:27.023Z,1.82
2023-02-06T21:24:59.847Z,1.81
2023-02-06T21:27:32.640Z,1.89
2023-02-06T21:30:06.156Z,1.98
2023-02-06T21:32:38.957Z,2.00
2023-02-06T21:35:10.927Z,2.07
2023-02-06T21:37:43.646Z,2.07
2023-02-06T21:40:17.434Z,2.00
2023-02-06T21:42:49.390Z,1.86
2023-02-06T21:45:22.174Z,1.73
2023-02-06T21:47:54.148Z,1.71
2023-02-06T21:50:26.905Z,1.66
2023-02-06T21:52:59.201Z,1.70
2023-02-06T21:55:32.454Z,1.66
2023-02-06T21:58:07.860Z,1.44
2023-02-06T22:00:44.228Z,1.42
2023-02-06T22:03:16.964Z,1.40
2023-02-06T22:05:50.029Z,1.46
2023-02-06T22:08:21.922Z,1.51
2023-02-06T22:10:54.713Z,1.55
2023-02-06T22:13:27.008Z,1.53
2023-02-06T22:15:59.379Z,1.53
2023-02-06T22:18:31.311Z,1.53
2023-02-06T22:21:06.942Z,1.64
2023-02-06T22:23:39.424Z,1.74
2023-02-06T22:26:17.562Z,1.76
2023-02-06T22:28:50.476Z,1.78
2023-02-06T22:31:31.287Z,1.81
2023-02-06T22:34:03.511Z,1.82
2023-02-06T22:36:36.268Z,1.87
2023-02-06T22:39:12.661Z,1.78
2023-02-06T22:41:47.143Z,1.89
2023-02-06T22:44:20.574Z,1.74
2023-02-06T22:46:53.634Z,1.74
2023-02-06T22:49:26.377Z,1.69
2023-02-06T22:51:59.213Z,1.77
2023-02-06T22:54:31.859Z,1.84
2023-02-06T22:57:03.862Z,1.74
2023-02-06T22:59:36.564Z,1.64
2023-02-06T23:02:08.508Z,1.69
2023-02-06T23:04:41.668Z,1.60
2023-02-06T23:07:13.810Z,1.54
2023-02-06T23:09:46.488Z,1.48
2023-02-06T23:12:18.409Z,1.65
2023-02-06T23:14:51.136Z,1.72
2023-02-06T23:17:23.025Z,1.66
2023-02-06T23:19:55.725Z,1.65
2023-02-06T23:22:27.644Z,1.72
2023-02-06T23:25:00.832Z,1.87
2023-02-06T23:27:32.879Z,1.86
2023-02-06T23:30:06.315Z,1.88
2023-02-06T23:32:38.176Z,1.98
2023-02-06T23:35:10.857Z,1.88
2023-02-06T23:37:43.250Z,1.95
2023-02-06T23:40:16.141Z,1.92
2023-02-06T23:42:48.076Z,1.94
2023-02-06T23:45:20.798Z,2.01
2023-02-06T23:47:54.116Z,2.03
2023-02-06T23:50:28.430Z,2.05
2023-02-06T23:53:22.388Z,1.94
2023-02-06T23:55:55.242Z,1.81
2023-02-06T23:58:27.837Z,1.86
